createdAt,value
2018-04-15T00:00:40.595Z,935.29
2018-04-15T00:01:40.595Z,935.30
2018-04-15T00:02:40.594Z,935.27
2018-04-15T00:03:40.593Z,935.27
2018-04-15T00:04:40.611Z,935.26
2018-04-15T00:05:40.590Z,935.28
2018-04-15T00:06:40.598Z,935.26
2018-04-15T00:07:40.586Z,935.20
2018-04-15T00:08:40.586Z,935.18
2018-04-15T00:09:40.586Z,935.15
2018-04-15T00:10:40.588Z,935.13
2018-04-15T00:11:40.582Z,935.16
2018-04-15T00:12:40.583Z,935.15
2018-04-15T00:13:40.580Z,935.07
2018-04-15T00:14:40.578Z,935.08
2018-04-15T00:15:40.579Z,935.10
2018-04-15T00:16:40.578Z,935.07
2018-04-15T00:17:40.576Z,935.10
2018-04-15T00:18:40.574Z,935.05
2018-04-15T00:19:40.572Z,935.02
2018-04-15T00:20:40.571Z,935.00
2018-04-15T00:21:40.571Z,934.92
2018-04-15T00:22:40.568Z,934.96
2018-04-15T00:23:40.567Z,934.90
2018-04-15T00:24:40.567Z,934.92
2018-04-15T00:25:40.565Z,934.91
2018-04-15T00:26:40.563Z,935.02
2018-04-15T00:27:40.561Z,935.03
2018-04-15T00:28:40.560Z,935.04
2018-04-15T00:29:40.560Z,934.99
2018-04-15T00:30:40.557Z,935.00
2018-04-15T00:31:40.556Z,934.96
2018-04-15T00:32:40.554Z,934.98
2018-04-15T00:33:40.553Z,934.97
2018-04-15T00:34:40.551Z,934.98
2018-04-15T00:35:40.550Z,934.99
2018-04-15T00:36:40.547Z,935.00
2018-04-15T00:37:40.546Z,934.99
2018-04-15T00:38:40.545Z,935.05
2018-04-15T00:39:40.541Z,935.02
2018-04-15T00:40:40.540Z,934.97
2018-04-15T00:41:40.539Z,934.98
2018-04-15T00:42:40.540Z,935.03
2018-04-15T00:43:40.537Z,935.04
2018-04-15T00:44:40.533Z,935.03
2018-04-15T00:45:40.530Z,935.02
2018-04-15T00:46:40.529Z,935.01
2018-04-15T00:47:40.527Z,934.99
2018-04-15T00:48:40.525Z,935.01
2018-04-15T00:49:40.523Z,935.06
2018-04-15T00:50:40.521Z,935.02
2018-04-15T00:51:40.520Z,934.94
2018-04-15T00:52:40.518Z,934.94
2018-04-15T00:53:40.516Z,934.90
2018-04-15T00:54:40.516Z,934.89
2018-04-15T00:55:40.511Z,934.95
2018-04-15T00:56:40.510Z,934.96
2018-04-15T00:57:40.510Z,934.94
2018-04-15T00:58:40.511Z,934.92
2018-04-15T00:59:40.505Z,934.92
2018-04-15T01:00:40.504Z,934.85
2018-04-15T01:01:40.503Z,934.79
2018-04-15T01:02:40.501Z,934.81
2018-04-15T01:03:40.499Z,934.81
2018-04-15T01:04:40.498Z,934.82
2018-04-15T01:05:40.497Z,934.76
2018-04-15T01:06:40.496Z,934.72
2018-04-15T01:07:40.493Z,934.69
2018-04-15T01:08:40.491Z,934.73
2018-04-15T01:09:40.490Z,934.74
2018-04-15T01:10:40.487Z,934.79
2018-04-15T01:11:40.487Z,934.87
2018-04-15T01:12:40.485Z,934.90
2018-04-15T01:13:40.482Z,934.85
2018-04-15T01:14:40.483Z,934.88
2018-04-15T01:15:40.478Z,934.84
2018-04-15T01:16:40.477Z,934.87
2018-04-15T01:17:40.475Z,934.82
2018-04-15T01:18:40.472Z,934.77
2018-04-15T01:19:40.471Z,934.74
2018-04-15T01:20:40.470Z,934.75
2018-04-15T01:21:40.467Z,934.71
2018-04-15T01:22:40.464Z,934.69
2018-04-15T01:23:40.462Z,934.67
2018-04-15T01:24:40.462Z,934.68
2018-04-15T01:25:40.460Z,934.66
2018-04-15T01:26:40.457Z,934.68
2018-04-15T01:27:40.460Z,934.68
2018-04-15T01:28:40.455Z,934.67
2018-04-15T01:29:40.455Z,934.70
2018-04-15T01:30:40.450Z,934.69
2018-04-15T01:31:40.449Z,934.66
2018-04-15T01:32:40.449Z,934.63
2018-04-15T01:33:40.447Z,934.62
2018-04-15T01:34:40.445Z,934.63
2018-04-15T01:35:40.443Z,934.60
2018-04-15T01:36:40.442Z,934.61
2018-04-15T01:37:40.441Z,934.63
2018-04-15T01:38:40.438Z,934.60
2018-04-15T01:39:40.437Z,934.59
2018-04-15T01:40:40.436Z,934.51
2018-04-15T01:41:40.439Z,934.52
2018-04-15T01:42:40.431Z,934.54
2018-04-15T01:43:40.433Z,934.57
2018-04-15T01:44:40.428Z,934.57
2018-04-15T01:45:40.427Z,934.58
2018-04-15T01:46:40.424Z,934.57
2018-04-15T01:47:40.423Z,934.63
2018-04-15T01:48:40.421Z,934.62
2018-04-15T01:49:40.419Z,934.57
2018-04-15T01:50:40.417Z,934.53
2018-04-15T01:51:40.419Z,934.49
2018-04-15T01:52:40.414Z,934.51
2018-04-15T01:53:40.413Z,934.54
2018-04-15T01:54:40.411Z,934.51
2018-04-15T01:55:40.409Z,934.51
2018-04-15T01:56:40.408Z,934.52
2018-04-15T01:57:40.406Z,934.51
2018-04-15T01:58:40.403Z,934.46
2018-04-15T01:59:40.401Z,934.46
2018-04-15T02:00:40.399Z,934.41
2018-04-15T02:01:40.399Z,934.40
2018-04-15T02:02:40.397Z,934.37
2018-04-15T02:03:40.393Z,934.39
2018-04-15T02:04:40.394Z,934.44
2018-04-15T02:05:40.391Z,934.49
2018-04-15T02:06:40.389Z,934.53
2018-04-15T02:07:40.389Z,934.53
2018-04-15T02:08:40.386Z,934.50
2018-04-15T02:09:40.384Z,934.56
2018-04-15T02:10:40.382Z,934.53
2018-04-15T02:11:40.381Z,934.56
2018-04-15T02:12:40.379Z,934.58
2018-04-15T02:13:40.376Z,934.58
2018-04-15T02:14:40.376Z,934.59
2018-04-15T02:15:40.373Z,934.60
2018-04-15T02:16:40.371Z,934.58
2018-04-15T02:17:40.369Z,934.56
2018-04-15T02:18:40.367Z,934.60
2018-04-15T02:19:40.365Z,934.61
2018-04-15T02:20:40.364Z,934.58
2018-04-15T02:21:40.361Z,934.57
2018-04-15T02:22:40.362Z,934.55
2018-04-15T02:23:40.357Z,934.54
2018-04-15T02:24:40.353Z,934.55
2018-04-15T02:25:40.354Z,934.54
2018-04-15T02:26:40.349Z,934.48
2018-04-15T02:27:40.349Z,934.54
2018-04-15T02:28:40.346Z,934.53
2018-04-15T02:29:40.393Z,934.52
2018-04-15T02:30:40.342Z,934.49
2018-04-15T02:31:40.339Z,934.50
2018-04-15T02:32:40.337Z,934.49
2018-04-15T02:33:40.336Z,934.50
2018-04-15T02:34:40.332Z,934.49
2018-04-15T02:35:40.332Z,934.44
2018-04-15T02:36:40.329Z,934.44
2018-04-15T02:37:40.327Z,934.43
2018-04-15T02:38:40.324Z,934.44
2018-04-15T02:39:40.323Z,934.43
2018-04-15T02:40:40.321Z,934.44
2018-04-15T02:41:40.318Z,934.40
2018-04-15T02:42:40.318Z,934.37
2018-04-15T02:43:40.314Z,934.34
2018-04-15T02:44:40.312Z,934.33
2018-04-15T02:45:40.310Z,934.33
2018-04-15T02:46:40.307Z,934.34
2018-04-15T02:47:40.305Z,934.34
2018-04-15T02:48:40.306Z,934.32
2018-04-15T02:49:40.300Z,934.31
2018-04-15T02:50:40.298Z,934.28
2018-04-15T02:51:40.296Z,934.30
2018-04-15T02:52:40.295Z,934.33
2018-04-15T02:53:40.292Z,934.36
2018-04-15T02:54:40.289Z,934.32
2018-04-15T02:55:40.287Z,934.34
2018-04-15T02:56:40.290Z,934.32
2018-04-15T02:57:40.283Z,934.38
2018-04-15T02:58:40.280Z,934.33
2018-04-15T02:59:40.281Z,934.37
2018-04-15T03:00:40.281Z,934.36
2018-04-15T03:01:40.275Z,934.36
2018-04-15T03:02:40.271Z,934.36
2018-04-15T03:03:40.270Z,934.34
2018-04-15T03:04:40.267Z,934.33
2018-04-15T03:05:40.266Z,934.35
2018-04-15T03:06:40.262Z,934.37
2018-04-15T03:07:40.260Z,934.39
2018-04-15T03:08:40.258Z,934.46
2018-04-15T03:09:40.256Z,934.46
2018-04-15T03:10:40.253Z,934.50
2018-04-15T03:11:40.250Z,934.53
2018-04-15T03:12:40.249Z,934.57
2018-04-15T03:13:40.248Z,934.62
2018-04-15T03:14:40.243Z,934.60
2018-04-15T03:15:40.240Z,934.60
2018-04-15T03:16:40.239Z,934.61
2018-04-15T03:17:40.237Z,934.62
2018-04-15T03:18:40.235Z,934.62
2018-04-15T03:19:40.232Z,934.64
2018-04-15T03:20:40.229Z,934.67
2018-04-15T03:21:40.230Z,934.63
2018-04-15T03:22:40.224Z,934.65
2018-04-15T03:23:40.222Z,934.63
2018-04-15T03:24:40.219Z,934.61
2018-04-15T03:25:40.218Z,934.58
2018-04-15T03:26:40.216Z,934.56
2018-04-15T03:27:40.212Z,934.59
2018-04-15T03:28:40.211Z,934.57
2018-04-15T03:29:40.208Z,934.56
2018-04-15T03:30:40.205Z,934.57
2018-04-15T03:31:40.203Z,934.62
2018-04-15T03:32:40.201Z,934.68
2018-04-15T03:33:40.198Z,934.67
2018-04-15T03:34:40.194Z,934.71
2018-04-15T03:35:40.193Z,934.77
2018-04-15T03:36:40.191Z,934.76
2018-04-15T03:37:40.188Z,934.71
2018-04-15T03:38:40.186Z,934.74
2018-04-15T03:39:40.183Z,934.72
2018-04-15T03:40:40.181Z,934.75
2018-04-15T03:41:40.178Z,934.77
2018-04-15T03:42:40.175Z,934.77
2018-04-15T03:43:40.173Z,934.79
2018-04-15T03:44:40.170Z,934.83
2018-04-15T03:45:40.169Z,934.80
2018-04-15T03:46:40.165Z,934.78
2018-04-15T03:47:40.165Z,934.77
2018-04-15T03:48:40.162Z,934.76
2018-04-15T03:49:40.160Z,934.71
2018-04-15T03:50:40.157Z,934.66
2018-04-15T03:51:40.154Z,934.67
2018-04-15T03:52:40.153Z,934.69
2018-04-15T03:53:40.150Z,934.62
2018-04-15T03:54:40.149Z,934.60
2018-04-15T03:55:40.144Z,934.58
2018-04-15T03:56:40.142Z,934.57
2018-04-15T03:57:40.140Z,934.60
2018-04-15T03:58:40.137Z,934.56
2018-04-15T03:59:40.134Z,934.57
2018-04-15T04:00:40.132Z,934.53
2018-04-15T04:01:40.134Z,934.53
2018-04-15T04:02:40.127Z,934.51
2018-04-15T04:03:40.124Z,934.51
2018-04-15T04:04:40.123Z,934.49
2018-04-15T04:05:40.119Z,934.55
2018-04-15T04:06:40.118Z,934.55
2018-04-15T04:07:40.115Z,934.58
2018-04-15T04:08:40.113Z,934.57
2018-04-15T04:09:40.110Z,934.61
2018-04-15T04:10:40.108Z,934.60
2018-04-15T04:11:40.106Z,934.61
2018-04-15T04:12:40.103Z,934.60
2018-04-15T04:13:40.101Z,934.57
2018-04-15T04:14:40.101Z,934.56
2018-04-15T04:15:40.096Z,934.53
2018-04-15T04:16:40.095Z,934.52
2018-04-15T04:17:40.091Z,934.54
2018-04-15T04:18:40.089Z,934.54
2018-04-15T04:19:40.085Z,934.56
2018-04-15T04:20:40.084Z,934.59
2018-04-15T04:21:40.085Z,934.61
2018-04-15T04:22:40.078Z,934.62
2018-04-15T04:23:40.075Z,934.59
2018-04-15T04:24:40.074Z,934.60
2018-04-15T04:25:40.071Z,934.57
2018-04-15T04:26:40.068Z,934.49
2018-04-15T04:27:40.066Z,934.48
2018-04-15T04:28:40.063Z,934.44
2018-04-15T04:29:40.062Z,934.49
2018-04-15T04:30:40.058Z,934.49
2018-04-15T04:31:40.056Z,934.51
2018-04-15T04:32:40.054Z,934.56
2018-04-15T04:33:40.053Z,934.59
2018-04-15T04:34:40.050Z,934.58
2018-04-15T04:35:40.046Z,934.59
2018-04-15T04:36:40.044Z,934.64
2018-04-15T04:37:40.043Z,934.67
2018-04-15T04:38:40.039Z,934.66
2018-04-15T04:39:40.036Z,934.69
2018-04-15T04:40:40.034Z,934.67
2018-04-15T04:41:40.031Z,934.67
2018-04-15T04:42:40.028Z,934.66
2018-04-15T04:43:40.026Z,934.64
2018-04-15T04:44:40.025Z,934.64
2018-04-15T04:45:40.022Z,934.63
2018-04-15T04:46:40.018Z,934.66
2018-04-15T04:47:40.016Z,934.65
2018-04-15T04:48:40.016Z,934.65
2018-04-15T04:49:40.016Z,934.65
2018-04-15T04:50:40.008Z,934.65
2018-04-15T04:51:40.005Z,934.64
2018-04-15T04:52:40.003Z,934.66
2018-04-15T04:53:40.001Z,934.71
2018-04-15T04:54:39.998Z,934.71
2018-04-15T04:55:39.995Z,934.70
2018-04-15T04:56:39.993Z,934.73
2018-04-15T04:57:39.992Z,934.72
2018-04-15T04:58:39.988Z,934.75
2018-04-15T04:59:39.985Z,934.77
2018-04-15T05:00:39.982Z,934.79
2018-04-15T05:01:39.980Z,934.77
2018-04-15T05:02:39.977Z,934.76
2018-04-15T05:03:39.975Z,934.75
2018-04-15T05:04:39.972Z,934.77
2018-04-15T05:05:39.970Z,934.71
2018-04-15T05:06:39.967Z,934.79
2018-04-15T05:07:40.014Z,934.76
2018-04-15T05:08:39.962Z,934.74
2018-04-15T05:09:39.960Z,934.73
2018-04-15T05:10:39.956Z,934.74
2018-04-15T05:11:39.955Z,934.74
2018-04-15T05:12:39.953Z,934.81
2018-04-15T05:13:39.950Z,934.80
2018-04-15T05:14:39.990Z,934.77
2018-04-15T05:15:39.949Z,934.77
2018-04-15T05:16:39.944Z,934.79
2018-04-15T05:17:39.940Z,934.80
2018-04-15T05:18:39.937Z,934.82
2018-04-15T05:19:39.936Z,934.79
2018-04-15T05:20:39.933Z,934.80
2018-04-15T05:21:39.931Z,934.82
2018-04-15T05:22:39.927Z,934.81
2018-04-15T05:23:39.925Z,934.77
2018-04-15T05:24:39.922Z,934.76
2018-04-15T05:25:39.921Z,934.78
2018-04-15T05:26:39.920Z,934.76
2018-04-15T05:27:39.914Z,934.77
2018-04-15T05:28:39.912Z,934.69
2018-04-15T05:29:39.912Z,934.67
2018-04-15T05:30:39.908Z,934.65
2018-04-15T05:31:39.906Z,934.62
2018-04-15T05:32:39.904Z,934.60
2018-04-15T05:33:39.901Z,934.63
2018-04-15T05:34:39.899Z,934.58
2018-04-15T05:35:39.897Z,934.58
2018-04-15T05:36:39.894Z,934.58
2018-04-15T05:37:39.893Z,934.60
2018-04-15T05:38:39.890Z,934.61
2018-04-15T05:39:39.893Z,934.60
2018-04-15T05:40:39.886Z,934.59
2018-04-15T05:41:39.883Z,934.56
2018-04-15T05:42:39.881Z,934.58
2018-04-15T05:43:39.880Z,934.59
2018-04-15T05:44:39.878Z,934.64
2018-04-15T05:45:39.876Z,934.62
2018-04-15T05:46:39.872Z,934.68
2018-04-15T05:47:39.925Z,934.72
2018-04-15T05:48:39.870Z,934.68
2018-04-15T05:49:39.868Z,934.77
2018-04-15T05:50:39.865Z,934.76
2018-04-15T05:51:39.864Z,934.77
2018-04-15T05:52:39.862Z,934.76
2018-04-15T05:53:39.860Z,934.76
2018-04-15T05:54:39.865Z,934.73
2018-04-15T05:55:39.856Z,934.69
2018-04-15T05:56:39.855Z,934.68
2018-04-15T05:57:39.853Z,934.66
2018-04-15T05:58:39.852Z,934.65
2018-04-15T05:59:39.851Z,934.60
2018-04-15T06:00:39.848Z,934.63
2018-04-15T06:01:39.847Z,934.62
2018-04-15T06:02:39.846Z,934.66
2018-04-15T06:03:39.843Z,934.65
2018-04-15T06:04:39.840Z,934.67
2018-04-15T06:05:39.840Z,934.65
2018-04-15T06:06:39.838Z,934.60
2018-04-15T06:07:39.837Z,934.66
2018-04-15T06:08:39.834Z,934.63
2018-04-15T06:09:39.838Z,934.67
2018-04-15T06:10:39.833Z,934.65
2018-04-15T06:11:39.830Z,934.67
2018-04-15T06:12:39.830Z,934.67
2018-04-15T06:13:39.828Z,934.60
2018-04-15T06:14:39.826Z,934.61
2018-04-15T06:15:39.825Z,934.60
2018-04-15T06:16:39.824Z,934.57
2018-04-15T06:17:39.824Z,934.58
2018-04-15T06:18:39.822Z,934.58
2018-04-15T06:19:39.821Z,934.60
2018-04-15T06:20:39.820Z,934.56
2018-04-15T06:21:39.819Z,934.58
2018-04-15T06:22:39.819Z,934.59
2018-04-15T06:23:39.817Z,934.61
2018-04-15T06:24:39.862Z,934.64
2018-04-15T06:25:39.817Z,934.61
2018-04-15T06:26:39.815Z,934.60
2018-04-15T06:27:39.814Z,934.57
2018-04-15T06:28:39.814Z,934.57
2018-04-15T06:29:39.813Z,934.55
2018-04-15T06:30:39.812Z,934.54
2018-04-15T06:31:39.810Z,934.54
2018-04-15T06:32:39.812Z,934.56
2018-04-15T06:33:39.810Z,934.55
2018-04-15T06:34:39.809Z,934.53
2018-04-15T06:35:39.810Z,934.52
2018-04-15T06:36:39.865Z,934.55
2018-04-15T06:37:39.810Z,934.64
2018-04-15T06:38:39.809Z,934.76
2018-04-15T06:39:39.813Z,934.83
2018-04-15T06:40:39.809Z,934.97
2018-04-15T06:41:39.812Z,934.99
2018-04-15T06:42:39.812Z,935.06
2018-04-15T06:43:39.815Z,935.02
2018-04-15T06:44:39.820Z,934.97
2018-04-15T06:45:39.823Z,934.97
2018-04-15T06:46:39.829Z,935.00
2018-04-15T06:47:39.832Z,934.97
2018-04-15T06:48:39.838Z,934.85
2018-04-15T06:49:39.846Z,934.86
2018-04-15T06:50:39.850Z,934.71
2018-04-15T06:51:39.856Z,934.65
2018-04-15T06:52:39.864Z,934.59
2018-04-15T06:53:39.870Z,934.54
2018-04-15T06:54:39.875Z,934.76
2018-04-15T06:55:39.958Z,934.92
2018-04-15T06:56:39.890Z,934.87
2018-04-15T06:57:40.138Z,934.83
2018-04-15T06:58:39.904Z,934.81
2018-04-15T06:59:39.910Z,934.90
2018-04-15T07:00:39.918Z,934.90
2018-04-15T07:01:39.935Z,934.87
2018-04-15T07:02:39.938Z,934.64
2018-04-15T07:03:39.950Z,934.60
2018-04-15T07:04:39.953Z,934.66
2018-04-15T07:05:39.962Z,934.64
2018-04-15T07:06:39.969Z,934.70
2018-04-15T07:07:39.976Z,934.78
2018-04-15T07:08:39.985Z,934.82
2018-04-15T07:09:40.026Z,934.77
2018-04-15T07:10:40.000Z,934.74
2018-04-15T07:11:40.010Z,934.79
2018-04-15T07:12:40.020Z,934.76
2018-04-15T07:13:40.030Z,934.70
2018-04-15T07:14:40.038Z,934.68
2018-04-15T07:15:40.047Z,934.66
2018-04-15T07:16:40.058Z,934.58
2018-04-15T07:17:40.071Z,934.51
2018-04-15T07:18:40.077Z,934.48
2018-04-15T07:19:40.087Z,934.52
2018-04-15T07:20:40.097Z,934.48
2018-04-15T07:21:40.114Z,934.59
2018-04-15T07:22:40.116Z,934.59
2018-04-15T07:23:40.130Z,934.55
2018-04-15T07:24:40.137Z,934.57
2018-04-15T07:25:40.146Z,934.54
2018-04-15T07:26:40.153Z,934.54
2018-04-15T07:27:40.163Z,934.54
2018-04-15T07:28:40.174Z,934.58
2018-04-15T07:29:40.182Z,934.52
2018-04-15T07:30:40.190Z,934.58
2018-04-15T07:31:40.200Z,934.50
2018-04-15T07:32:40.209Z,934.43
2018-04-15T07:33:40.252Z,934.42
2018-04-15T07:34:40.229Z,934.41
2018-04-15T07:35:40.234Z,934.40
2018-04-15T07:36:40.262Z,934.31
2018-04-15T07:37:40.252Z,934.27
2018-04-15T07:38:40.260Z,934.25
2018-04-15T07:39:40.268Z,934.17
2018-04-15T07:40:40.278Z,934.15
2018-04-15T07:41:40.285Z,934.16
2018-04-15T07:42:40.291Z,934.16
2018-04-15T07:43:40.300Z,934.20
2018-04-15T07:44:40.310Z,934.18
2018-04-15T07:45:40.314Z,934.24
2018-04-15T07:46:40.323Z,934.25
2018-04-15T07:47:40.328Z,934.30
2018-04-15T07:48:40.336Z,934.27
2018-04-15T07:49:40.343Z,934.23
2018-04-15T07:50:40.350Z,934.24
2018-04-15T07:51:40.358Z,934.18
2018-04-15T07:52:40.366Z,934.21
2018-04-15T07:53:40.372Z,934.20
2018-04-15T07:54:40.377Z,934.19
2018-04-15T07:55:40.384Z,934.18
2018-04-15T07:56:40.392Z,934.11
2018-04-15T07:57:40.399Z,934.13
2018-04-15T07:58:40.405Z,934.08
2018-04-15T07:59:40.413Z,934.04
2018-04-15T08:00:40.418Z,934.07
2018-04-15T08:01:40.425Z,934.05
2018-04-15T08:02:40.431Z,934.03
2018-04-15T08:03:40.437Z,934.03
2018-04-15T08:04:40.442Z,934.06
2018-04-15T08:05:40.448Z,934.06
2018-04-15T08:06:40.455Z,934.08
2018-04-15T08:07:40.473Z,934.08
2018-04-15T08:08:40.466Z,934.02
2018-04-15T08:09:40.472Z,934.05
2018-04-15T08:10:40.476Z,933.99
2018-04-15T08:11:40.482Z,933.99
2018-04-15T08:12:40.489Z,933.97
2018-04-15T08:13:40.495Z,933.96
2018-04-15T08:14:40.497Z,933.95
2018-04-15T08:15:40.503Z,933.96
2018-04-15T08:16:40.513Z,933.94
2018-04-15T08:17:40.514Z,933.97
2018-04-15T08:18:40.517Z,934.01
2018-04-15T08:19:40.523Z,934.03
2018-04-15T08:20:40.527Z,934.02
2018-04-15T08:21:40.533Z,933.98
2018-04-15T08:22:40.537Z,934.03
2018-04-15T08:23:40.546Z,934.02
2018-04-15T08:24:40.550Z,933.96
2018-04-15T08:25:40.558Z,933.96
2018-04-15T08:26:40.563Z,933.92
2018-04-15T08:27:40.568Z,933.92
2018-04-15T08:28:40.574Z,933.93
2018-04-15T08:29:40.580Z,933.92
2018-04-15T08:30:40.585Z,933.90
2018-04-15T08:31:40.594Z,933.95
2018-04-15T08:32:40.599Z,933.97
2018-04-15T08:33:40.606Z,933.95
2018-04-15T08:34:40.611Z,934.01
2018-04-15T08:35:40.617Z,934.00
2018-04-15T08:36:40.624Z,934.01
2018-04-15T08:37:40.630Z,934.05
2018-04-15T08:38:40.635Z,934.03
2018-04-15T08:39:40.645Z,934.00
2018-04-15T08:40:40.648Z,933.99
2018-04-15T08:41:40.654Z,934.00
2018-04-15T08:42:40.660Z,934.00
2018-04-15T08:43:40.669Z,934.00
2018-04-15T08:44:40.675Z,934.03
2018-04-15T08:45:40.680Z,934.01
2018-04-15T08:46:40.687Z,934.00
2018-04-15T08:47:40.692Z,933.97
2018-04-15T08:48:40.701Z,933.97
2018-04-15T08:49:40.706Z,933.96
2018-04-15T08:50:40.713Z,933.94
2018-04-15T08:51:40.721Z,933.95
2018-04-15T08:52:40.724Z,933.95
2018-04-15T08:53:40.731Z,933.91
2018-04-15T08:54:40.739Z,933.88
2018-04-15T08:55:40.742Z,933.86
2018-04-15T08:56:40.747Z,933.85
2018-04-15T08:57:40.754Z,933.85
2018-04-15T08:58:40.759Z,933.85
2018-04-15T08:59:40.765Z,933.85
2018-04-15T09:00:40.831Z,933.85
2018-04-15T09:01:40.776Z,933.85
2018-04-15T09:02:40.781Z,933.88
2018-04-15T09:03:40.785Z,933.90
2018-04-15T09:04:40.792Z,933.88
2018-04-15T09:05:40.800Z,933.86
2018-04-15T09:06:40.801Z,933.82
2018-04-15T09:07:40.806Z,933.78
2018-04-15T09:08:40.811Z,933.77
2018-04-15T09:09:40.832Z,933.71
2018-04-15T09:10:40.821Z,933.71
2018-04-15T09:11:40.825Z,933.71
2018-04-15T09:12:40.830Z,933.73
2018-04-15T09:13:40.835Z,933.68
2018-04-15T09:14:40.839Z,933.71
2018-04-15T09:15:40.843Z,933.69
2018-04-15T09:16:40.848Z,933.69
2018-04-15T09:17:40.852Z,933.68
2018-04-15T09:18:40.855Z,933.71
2018-04-15T09:19:40.859Z,933.74
2018-04-15T09:20:40.864Z,933.76
2018-04-15T09:21:40.902Z,933.77
2018-04-15T09:22:40.871Z,933.77
2018-04-15T09:23:40.875Z,933.75
2018-04-15T09:24:40.880Z,933.79
2018-04-15T09:25:40.884Z,933.77
2018-04-15T09:26:40.886Z,933.79
2018-04-15T09:27:40.893Z,933.80
2018-04-15T09:28:40.896Z,933.83
2018-04-15T09:29:40.898Z,933.77
2018-04-15T09:30:40.902Z,933.73
2018-04-15T09:31:40.906Z,933.71
2018-04-15T09:32:40.910Z,933.66
2018-04-15T09:33:40.913Z,933.63
2018-04-15T09:34:40.916Z,933.57
2018-04-15T09:35:40.983Z,933.54
2018-04-15T09:36:40.924Z,933.55
2018-04-15T09:37:40.928Z,933.58
2018-04-15T09:38:40.930Z,933.56
2018-04-15T09:39:40.934Z,933.59
2018-04-15T09:40:40.941Z,933.61
2018-04-15T09:41:40.942Z,933.63
2018-04-15T09:42:40.947Z,933.65
2018-04-15T09:43:40.948Z,933.62
2018-04-15T09:44:40.953Z,933.59
2018-04-15T09:45:40.957Z,933.59
2018-04-15T09:46:40.961Z,933.59
2018-04-15T09:47:40.965Z,933.54
2018-04-15T09:48:40.969Z,933.59
2018-04-15T09:49:40.974Z,933.58
2018-04-15T09:50:40.977Z,933.58
2018-04-15T09:51:40.982Z,933.56
2018-04-15T09:52:40.987Z,933.56
2018-04-15T09:53:40.990Z,933.53
2018-04-15T09:54:40.994Z,933.51
2018-04-15T09:55:40.998Z,933.56
2018-04-15T09:56:41.002Z,933.55
2018-04-15T09:57:41.007Z,933.53
2018-04-15T09:58:41.010Z,933.54
2018-04-15T09:59:41.014Z,933.56
2018-04-15T10:00:41.019Z,933.47
2018-04-15T10:01:41.022Z,933.49
2018-04-15T10:02:41.025Z,933.50
2018-04-15T10:03:41.029Z,933.45
2018-04-15T10:04:41.034Z,933.49
2018-04-15T10:05:41.039Z,933.46
2018-04-15T10:06:41.041Z,933.50
2018-04-15T10:07:41.045Z,933.52
2018-04-15T10:08:41.048Z,933.52
2018-04-15T10:09:41.054Z,933.53
2018-04-15T10:10:41.057Z,933.50
2018-04-15T10:11:41.061Z,933.53
2018-04-15T10:12:41.064Z,933.51
2018-04-15T10:13:41.071Z,933.50
2018-04-15T10:14:41.073Z,933.51
2018-04-15T10:15:41.077Z,933.52
2018-04-15T10:16:41.080Z,933.50
2018-04-15T10:17:41.085Z,933.52
2018-04-15T10:18:41.089Z,933.51
2018-04-15T10:19:41.093Z,933.51
2018-04-15T10:20:41.101Z,933.50
2018-04-15T10:21:41.103Z,933.44
2018-04-15T10:22:41.105Z,933.43
2018-04-15T10:23:41.109Z,933.44
2018-04-15T10:24:41.113Z,933.40
2018-04-15T10:25:41.121Z,933.37
2018-04-15T10:26:41.121Z,933.41
2018-04-15T10:27:41.129Z,933.36
2018-04-15T10:28:41.130Z,933.39
2018-04-15T10:29:41.133Z,933.37
2018-04-15T10:30:41.139Z,933.35
2018-04-15T10:31:41.142Z,933.31
2018-04-15T10:32:41.174Z,933.29
2018-04-15T10:33:41.150Z,933.28
2018-04-15T10:34:41.154Z,933.27
2018-04-15T10:35:41.158Z,933.26
2018-04-15T10:36:41.162Z,933.20
2018-04-15T10:37:41.168Z,933.18
2018-04-15T10:38:41.203Z,933.15
2018-04-15T10:39:41.180Z,933.13
2018-04-15T10:40:41.183Z,933.09
2018-04-15T10:41:41.183Z,933.08
2018-04-15T10:42:41.186Z,933.08
2018-04-15T10:43:41.190Z,933.08
2018-04-15T10:44:41.195Z,933.10
2018-04-15T10:45:41.202Z,933.10
2018-04-15T10:46:41.202Z,933.11
2018-04-15T10:47:41.206Z,933.09
2018-04-15T10:48:41.211Z,933.08
2018-04-15T10:49:41.216Z,933.06
2018-04-15T10:50:41.219Z,933.05
2018-04-15T10:51:41.221Z,933.04
2018-04-15T10:52:41.227Z,933.04
2018-04-15T10:53:41.231Z,933.05
2018-04-15T10:54:41.249Z,933.06
2018-04-15T10:55:41.238Z,933.04
2018-04-15T10:56:41.241Z,933.03
2018-04-15T10:57:41.246Z,933.02
2018-04-15T10:58:41.248Z,933.03
2018-04-15T10:59:41.253Z,933.02
2018-04-15T11:00:41.257Z,933.01
2018-04-15T11:01:41.261Z,932.98
2018-04-15T11:02:41.263Z,932.97
2018-04-15T11:03:41.267Z,932.98
2018-04-15T11:04:41.273Z,932.93
2018-04-15T11:05:41.276Z,932.93
2018-04-15T11:06:41.279Z,932.91
2018-04-15T11:07:41.283Z,932.91
2018-04-15T11:08:41.307Z,932.91
2018-04-15T11:09:41.293Z,932.85
2018-04-15T11:10:41.295Z,932.85
2018-04-15T11:11:41.303Z,932.84
2018-04-15T11:12:41.307Z,932.83
2018-04-15T11:13:41.309Z,932.85
2018-04-15T11:14:41.315Z,932.81
2018-04-15T11:15:41.317Z,932.81
2018-04-15T11:16:41.328Z,932.76
2018-04-15T11:17:41.326Z,932.75
2018-04-15T11:18:41.330Z,932.82
2018-04-15T11:19:41.412Z,932.83
2018-04-15T11:20:41.346Z,932.84
2018-04-15T11:21:41.387Z,932.82
2018-04-15T11:22:41.413Z,932.82
2018-04-15T11:23:41.481Z,932.83
2018-04-15T11:24:41.444Z,932.81
2018-04-15T11:25:41.420Z,932.76
2018-04-15T11:26:41.369Z,932.74
2018-04-15T11:27:41.374Z,932.65
2018-04-15T11:28:41.440Z,932.58
2018-04-15T11:29:41.381Z,932.56
2018-04-15T11:30:41.386Z,932.53
2018-04-15T11:31:41.389Z,932.54
2018-04-15T11:32:41.395Z,932.59
2018-04-15T11:33:41.399Z,932.61
2018-04-15T11:34:41.404Z,932.66
2018-04-15T11:35:41.409Z,932.57
2018-04-15T11:36:41.417Z,932.55
2018-04-15T11:37:41.418Z,932.54
2018-04-15T11:38:41.422Z,932.50
2018-04-15T11:39:41.426Z,932.54
2018-04-15T11:40:41.433Z,932.48
2018-04-15T11:41:41.438Z,932.45
2018-04-15T11:42:41.441Z,932.43
2018-04-15T11:43:41.446Z,932.43
2018-04-15T11:44:41.454Z,932.43
2018-04-15T11:45:41.457Z,932.39
2018-04-15T11:46:41.462Z,932.40
2018-04-15T11:47:41.466Z,932.42
2018-04-15T11:48:41.471Z,932.41
2018-04-15T11:49:41.494Z,932.40
2018-04-15T11:50:41.481Z,932.37
2018-04-15T11:51:41.504Z,932.36
2018-04-15T11:52:41.494Z,932.34
2018-04-15T11:53:41.498Z,932.33
2018-04-15T11:54:41.501Z,932.36
2018-04-15T11:55:41.506Z,932.37
2018-04-15T11:56:41.512Z,932.40
2018-04-15T11:57:41.516Z,932.42
2018-04-15T11:58:41.523Z,932.42
2018-04-15T11:59:41.527Z,932.40
2018-04-15T12:00:41.532Z,932.42
2018-04-15T12:01:41.543Z,932.46
2018-04-15T12:02:41.549Z,932.46
2018-04-15T12:03:41.548Z,932.41
2018-04-15T12:04:41.585Z,932.41
2018-04-15T12:05:41.565Z,932.40
2018-04-15T12:06:41.564Z,932.47
2018-04-15T12:07:41.574Z,932.44
2018-04-15T12:08:41.576Z,932.39
2018-04-15T12:09:41.582Z,932.43
2018-04-15T12:10:41.588Z,932.42
2018-04-15T12:11:41.595Z,932.38
2018-04-15T12:12:41.601Z,932.38
2018-04-15T12:13:41.612Z,932.36
2018-04-15T12:14:41.614Z,932.37
2018-04-15T12:15:41.619Z,932.35
2018-04-15T12:16:41.625Z,932.38
2018-04-15T12:17:41.717Z,932.39
2018-04-15T12:18:41.639Z,932.38
2018-04-15T12:19:41.645Z,932.37
2018-04-15T12:20:41.652Z,932.37
2018-04-15T12:21:41.658Z,932.33
2018-04-15T12:22:41.662Z,932.32
2018-04-15T12:23:41.683Z,932.33
2018-04-15T12:24:41.679Z,932.33
2018-04-15T12:25:41.685Z,932.33
2018-04-15T12:26:41.705Z,932.32
2018-04-15T12:27:41.698Z,932.31
2018-04-15T12:28:41.705Z,932.31